sensor_id;sensor_type;location;lat;lon;timestamp;P1;durP1;ratioP1;P2;durP2;ratioP2
47529;SDS011;33272;51.922;7.730;2023-01-24T00:01:43;10.80;;;8.97;;
47529;SDS011;33272;51.922;7.730;2023-01-24T00:04:10;12.03;;;9.60;;
47529;SDS011;33272;51.922;7.730;2023-01-24T00:06:37;10.83;;;8.97;;
47529;SDS011;33272;51.922;7.730;2023-01-24T00:09:04;10.27;;;9.10;;
47529;SDS011;33272;51.922;7.730;2023-01-24T00:11:31;11.00;;;9.37;;
47529;SDS011;33272;51.922;7.730;2023-01-24T00:13:58;11.37;;;9.43;;
47529;SDS011;33272;51.922;7.730;2023-01-24T00:16:26;11.70;;;9.50;;
47529;SDS011;33272;51.922;7.730;2023-01-24T00:18:53;11.23;;;9.23;;
47529;SDS011;33272;51.922;7.730;2023-01-24T00:21:21;9.50;;;8.30;;
47529;SDS011;33272;51.922;7.730;2023-01-24T00:23:50;11.03;;;9.10;;
47529;SDS011;33272;51.922;7.730;2023-01-24T00:26:19;10.60;;;8.93;;
47529;SDS011;33272;51.922;7.730;2023-01-24T00:28:48;11.30;;;9.27;;
47529;SDS011;33272;51.922;7.730;2023-01-24T00:31:15;12.53;;;9.30;;
47529;SDS011;33272;51.922;7.730;2023-01-24T00:33:44;12.20;;;9.30;;
47529;SDS011;33272;51.922;7.730;2023-01-24T00:36:11;11.10;;;9.10;;
47529;SDS011;33272;51.922;7.730;2023-01-24T00:38:38;10.57;;;9.40;;
47529;SDS011;33272;51.922;7.730;2023-01-24T00:41:06;11.43;;;9.07;;
47529;SDS011;33272;51.922;7.730;2023-01-24T00:43:33;10.40;;;8.77;;
47529;SDS011;33272;51.922;7.730;2023-01-24T00:46:04;11.23;;;9.23;;
47529;SDS011;33272;51.922;7.730;2023-01-24T00:48:32;14.97;;;10.30;;
47529;SDS011;33272;51.922;7.730;2023-01-24T00:51:00;12.97;;;9.80;;
47529;SDS011;33272;51.922;7.730;2023-01-24T00:53:28;11.43;;;9.43;;
47529;SDS011;33272;51.922;7.730;2023-01-24T00:55:55;9.97;;;8.90;;
47529;SDS011;33272;51.922;7.730;2023-01-24T00:58:22;13.80;;;9.70;;
47529;SDS011;33272;51.922;7.730;2023-01-24T01:00:50;10.40;;;9.30;;
47529;SDS011;33272;51.922;7.730;2023-01-24T01:03:21;8.77;;;7.87;;
47529;SDS011;33272;51.922;7.730;2023-01-24T01:05:48;10.70;;;8.87;;
47529;SDS011;33272;51.922;7.730;2023-01-24T01:08:16;10.87;;;9.07;;
47529;SDS011;33272;51.922;7.730;2023-01-24T01:10:43;10.60;;;9.17;;
47529;SDS011;33272;51.922;7.730;2023-01-24T01:13:11;10.77;;;9.10;;
47529;SDS011;33272;51.922;7.730;2023-01-24T01:15:39;12.17;;;9.07;;
47529;SDS011;33272;51.922;7.730;2023-01-24T01:18:06;12.30;;;10.03;;
47529;SDS011;33272;51.922;7.730;2023-01-24T01:20:33;11.60;;;9.60;;
47529;SDS011;33272;51.922;7.730;2023-01-24T01:23:00;10.10;;;8.87;;
47529;SDS011;33272;51.922;7.730;2023-01-24T01:25:28;11.30;;;8.73;;
47529;SDS011;33272;51.922;7.730;2023-01-24T01:27:55;11.33;;;8.90;;
47529;SDS011;33272;51.922;7.730;2023-01-24T01:30:22;11.80;;;9.33;;
47529;SDS011;33272;51.922;7.730;2023-01-24T01:32:49;14.77;;;10.37;;
47529;SDS011;33272;51.922;7.730;2023-01-24T01:35:16;13.63;;;11.00;;
47529;SDS011;33272;51.922;7.730;2023-01-24T01:37:43;13.37;;;9.97;;
47529;SDS011;33272;51.922;7.730;2023-01-24T01:40:10;12.67;;;9.87;;
47529;SDS011;33272;51.922;7.730;2023-01-24T01:42:48;11.60;;;8.77;;
47529;SDS011;33272;51.922;7.730;2023-01-24T01:45:36;11.97;;;9.83;;
47529;SDS011;33272;51.922;7.730;2023-01-24T01:51:01;14.07;;;9.93;;
47529;SDS011;33272;51.922;7.730;2023-01-24T01:53:35;11.73;;;9.40;;
47529;SDS011;33272;51.922;7.730;2023-01-24T01:56:09;13.47;;;10.27;;
47529;SDS011;33272;51.922;7.730;2023-01-24T01:58:44;13.10;;;9.93;;
47529;SDS011;33272;51.922;7.730;2023-01-24T02:01:11;13.53;;;10.47;;
47529;SDS011;33272;51.922;7.730;2023-01-24T02:03:39;14.20;;;11.90;;
47529;SDS011;33272;51.922;7.730;2023-01-24T02:06:33;13.30;;;10.50;;
47529;SDS011;33272;51.922;7.730;2023-01-24T02:09:13;14.50;;;10.27;;
47529;SDS011;33272;51.922;7.730;2023-01-24T02:11:45;14.20;;;11.17;;
47529;SDS011;33272;51.922;7.730;2023-01-24T02:14:14;13.90;;;10.70;;
47529;SDS011;33272;51.922;7.730;2023-01-24T02:19:38;15.07;;;10.93;;
47529;SDS011;33272;51.922;7.730;2023-01-24T02:22:28;14.00;;;10.67;;
47529;SDS011;33272;51.922;7.730;2023-01-24T02:25:13;11.27;;;9.13;;
47529;SDS011;33272;51.922;7.730;2023-01-24T02:27:48;15.87;;;10.20;;
47529;SDS011;33272;51.922;7.730;2023-01-24T02:30:16;14.50;;;11.37;;
47529;SDS011;33272;51.922;7.730;2023-01-24T02:32:43;13.63;;;10.23;;
47529;SDS011;33272;51.922;7.730;2023-01-24T02:35:21;13.03;;;10.50;;
47529;SDS011;33272;51.922;7.730;2023-01-24T02:37:51;14.67;;;11.37;;
47529;SDS011;33272;51.922;7.730;2023-01-24T02:40:19;13.50;;;11.10;;
47529;SDS011;33272;51.922;7.730;2023-01-24T02:42:49;13.80;;;10.63;;
47529;SDS011;33272;51.922;7.730;2023-01-24T02:45:18;14.23;;;11.63;;
47529;SDS011;33272;51.922;7.730;2023-01-24T02:47:51;14.67;;;10.70;;
47529;SDS011;33272;51.922;7.730;2023-01-24T02:50:21;12.37;;;10.30;;
47529;SDS011;33272;51.922;7.730;2023-01-24T02:52:50;12.73;;;9.87;;
47529;SDS011;33272;51.922;7.730;2023-01-24T02:55:34;13.27;;;10.53;;
47529;SDS011;33272;51.922;7.730;2023-01-24T02:58:25;13.50;;;10.60;;
47529;SDS011;33272;51.922;7.730;2023-01-24T03:00:52;12.53;;;9.80;;
47529;SDS011;33272;51.922;7.730;2023-01-24T03:03:19;13.20;;;10.33;;
47529;SDS011;33272;51.922;7.730;2023-01-24T03:05:46;16.27;;;12.27;;
47529;SDS011;33272;51.922;7.730;2023-01-24T03:08:21;14.53;;;11.17;;
47529;SDS011;33272;51.922;7.730;2023-01-24T03:10:50;13.80;;;10.47;;
47529;SDS011;33272;51.922;7.730;2023-01-24T03:13:17;13.97;;;11.10;;
47529;SDS011;33272;51.922;7.730;2023-01-24T03:16:04;13.37;;;10.40;;
47529;SDS011;33272;51.922;7.730;2023-01-24T03:18:51;12.00;;;9.73;;
47529;SDS011;33272;51.922;7.730;2023-01-24T03:21:36;12.03;;;9.67;;
47529;SDS011;33272;51.922;7.730;2023-01-24T03:24:21;11.77;;;9.83;;
47529;SDS011;33272;51.922;7.730;2023-01-24T03:27:06;13.07;;;9.83;;
47529;SDS011;33272;51.922;7.730;2023-01-24T03:29:51;11.40;;;9.10;;
47529;SDS011;33272;51.922;7.730;2023-01-24T03:32:37;10.57;;;9.07;;
47529;SDS011;33272;51.922;7.730;2023-01-24T03:35:22;12.10;;;8.60;;
47529;SDS011;33272;51.922;7.730;2023-01-24T03:37:49;11.40;;;9.27;;
47529;SDS011;33272;51.922;7.730;2023-01-24T03:40:33;11.50;;;8.67;;
47529;SDS011;33272;51.922;7.730;2023-01-24T03:43:01;10.20;;;8.00;;
47529;SDS011;33272;51.922;7.730;2023-01-24T03:45:29;10.23;;;8.73;;
47529;SDS011;33272;51.922;7.730;2023-01-24T03:48:01;9.17;;;7.60;;
47529;SDS011;33272;51.922;7.730;2023-01-24T03:50:38;9.93;;;7.73;;
47529;SDS011;33272;51.922;7.730;2023-01-24T03:53:25;11.00;;;8.63;;
47529;SDS011;33272;51.922;7.730;2023-01-24T03:55:55;8.90;;;8.00;;
47529;SDS011;33272;51.922;7.730;2023-01-24T03:58:24;12.50;;;8.77;;
47529;SDS011;33272;51.922;7.730;2023-01-24T04:00:53;10.67;;;8.73;;
47529;SDS011;33272;51.922;7.730;2023-01-24T04:03:22;11.03;;;9.20;;
47529;SDS011;33272;51.922;7.730;2023-01-24T04:05:50;13.20;;;9.93;;
47529;SDS011;33272;51.922;7.730;2023-01-24T04:08:17;10.33;;;8.90;;
47529;SDS011;33272;51.922;7.730;2023-01-24T04:10:45;11.93;;;8.97;;
47529;SDS011;33272;51.922;7.730;2023-01-24T04:13:12;8.53;;;7.57;;
47529;SDS011;33272;51.922;7.730;2023-01-24T04:15:39;9.87;;;8.30;;
47529;SDS011;33272;51.922;7.730;2023-01-24T04:18:06;9.30;;;7.93;;
47529;SDS011;33272;51.922;7.730;2023-01-24T04:20:35;11.43;;;9.27;;
47529;SDS011;33272;51.922;7.730;2023-01-24T04:23:03;8.77;;;7.30;;
47529;SDS011;33272;51.922;7.730;2023-01-24T04:25:32;10.27;;;8.40;;
47529;SDS011;33272;51.922;7.730;2023-01-24T04:28:00;10.60;;;7.50;;
47529;SDS011;33272;51.922;7.730;2023-01-24T04:30:27;10.03;;;7.70;;
47529;SDS011;33272;51.922;7.730;2023-01-24T04:32:54;8.37;;;7.17;;
47529;SDS011;33272;51.922;7.730;2023-01-24T04:35:22;8.83;;;7.17;;
47529;SDS011;33272;51.922;7.730;2023-01-24T04:37:55;8.57;;;6.83;;
47529;SDS011;33272;51.922;7.730;2023-01-24T04:40:24;9.33;;;7.53;;
47529;SDS011;33272;51.922;7.730;2023-01-24T04:42:51;8.27;;;7.47;;
47529;SDS011;33272;51.922;7.730;2023-01-24T04:45:20;8.93;;;7.63;;
47529;SDS011;33272;51.922;7.730;2023-01-24T04:47:47;9.70;;;8.20;;
47529;SDS011;33272;51.922;7.730;2023-01-24T04:50:14;8.97;;;7.23;;
47529;SDS011;33272;51.922;7.730;2023-01-24T04:52:41;9.07;;;7.60;;
47529;SDS011;33272;51.922;7.730;2023-01-24T04:55:10;8.87;;;7.47;;
47529;SDS011;33272;51.922;7.730;2023-01-24T04:57:37;9.63;;;8.03;;
47529;SDS011;33272;51.922;7.730;2023-01-24T05:00:04;9.53;;;7.87;;
47529;SDS011;33272;51.922;7.730;2023-01-24T05:02:34;10.10;;;7.47;;
47529;SDS011;33272;51.922;7.730;2023-01-24T05:05:02;10.23;;;8.03;;
47529;SDS011;33272;51.922;7.730;2023-01-24T05:07:30;10.27;;;8.20;;
47529;SDS011;33272;51.922;7.730;2023-01-24T05:09:57;10.57;;;8.40;;
47529;SDS011;33272;51.922;7.730;2023-01-24T05:12:25;9.93;;;8.33;;
47529;SDS011;33272;51.922;7.730;2023-01-24T05:14:52;9.33;;;8.03;;
47529;SDS011;33272;51.922;7.730;2023-01-24T05:17:19;9.67;;;8.10;;
47529;SDS011;33272;51.922;7.730;2023-01-24T05:19:48;9.73;;;7.73;;
47529;SDS011;33272;51.922;7.730;2023-01-24T05:22:15;11.17;;;8.13;;
47529;SDS011;33272;51.922;7.730;2023-01-24T05:24:42;10.90;;;8.50;;
47529;SDS011;33272;51.922;7.730;2023-01-24T05:27:09;9.50;;;7.77;;
47529;SDS011;33272;51.922;7.730;2023-01-24T05:29:37;10.80;;;8.87;;
47529;SDS011;33272;51.922;7.730;2023-01-24T05:32:04;9.73;;;8.30;;
47529;SDS011;33272;51.922;7.730;2023-01-24T05:34:31;9.53;;;7.93;;
47529;SDS011;33272;51.922;7.730;2023-01-24T05:36:58;10.03;;;8.70;;
47529;SDS011;33272;51.922;7.730;2023-01-24T05:39:25;11.17;;;9.40;;
47529;SDS011;33272;51.922;7.730;2023-01-24T05:41:52;10.37;;;8.67;;
47529;SDS011;33272;51.922;7.730;2023-01-24T05:44:19;10.60;;;8.80;;
47529;SDS011;33272;51.922;7.730;2023-01-24T05:46:47;10.53;;;8.60;;
47529;SDS011;33272;51.922;7.730;2023-01-24T05:49:14;9.73;;;8.10;;
47529;SDS011;33272;51.922;7.730;2023-01-24T05:51:41;10.57;;;9.10;;
47529;SDS011;33272;51.922;7.730;2023-01-24T05:54:08;10.67;;;8.73;;
47529;SDS011;33272;51.922;7.730;2023-01-24T05:56:35;10.30;;;8.67;;
47529;SDS011;33272;51.922;7.730;2023-01-24T05:59:02;11.47;;;8.60;;
47529;SDS011;33272;51.922;7.730;2023-01-24T06:01:29;12.17;;;8.27;;
47529;SDS011;33272;51.922;7.730;2023-01-24T06:03:58;10.57;;;8.40;;
47529;SDS011;33272;51.922;7.730;2023-01-24T06:06:25;11.77;;;9.17;;
47529;SDS011;33272;51.922;7.730;2023-01-24T06:08:52;11.23;;;9.13;;
47529;SDS011;33272;51.922;7.730;2023-01-24T06:11:20;9.43;;;7.97;;
47529;SDS011;33272;51.922;7.730;2023-01-24T06:13:49;10.23;;;8.30;;
47529;SDS011;33272;51.922;7.730;2023-01-24T06:16:16;10.93;;;8.70;;
47529;SDS011;33272;51.922;7.730;2023-01-24T06:18:45;11.03;;;8.80;;
47529;SDS011;33272;51.922;7.730;2023-01-24T06:21:21;10.57;;;8.73;;
47529;SDS011;33272;51.922;7.730;2023-01-24T06:24:02;12.70;;;8.87;;
47529;SDS011;33272;51.922;7.730;2023-01-24T06:26:31;10.37;;;8.60;;
47529;SDS011;33272;51.922;7.730;2023-01-24T06:28:59;10.87;;;9.17;;
47529;SDS011;33272;51.922;7.730;2023-01-24T06:31:29;10.87;;;9.33;;
47529;SDS011;33272;51.922;7.730;2023-01-24T06:34:08;11.03;;;9.10;;
47529;SDS011;33272;51.922;7.730;2023-01-24T06:36:57;11.57;;;9.73;;
47529;SDS011;33272;51.922;7.730;2023-01-24T06:39:34;12.27;;;10.83;;
47529;SDS011;33272;51.922;7.730;2023-01-24T06:42:04;13.77;;;9.97;;
47529;SDS011;33272;51.922;7.730;2023-01-24T06:44:33;12.23;;;9.03;;
47529;SDS011;33272;51.922;7.730;2023-01-24T06:47:01;12.37;;;9.53;;
47529;SDS011;33272;51.922;7.730;2023-01-24T06:49:28;12.13;;;8.93;;
47529;SDS011;33272;51.922;7.730;2023-01-24T06:51:57;12.27;;;10.30;;
47529;SDS011;33272;51.922;7.730;2023-01-24T06:54:23;12.10;;;9.40;;
47529;SDS011;33272;51.922;7.730;2023-01-24T06:56:50;10.90;;;8.80;;
47529;SDS011;33272;51.922;7.730;2023-01-24T06:59:17;9.83;;;8.37;;
47529;SDS011;33272;51.922;7.730;2023-01-24T07:01:47;11.70;;;9.17;;
47529;SDS011;33272;51.922;7.730;2023-01-24T07:04:14;12.20;;;10.00;;
47529;SDS011;33272;51.922;7.730;2023-01-24T07:06:42;11.03;;;9.20;;
47529;SDS011;33272;51.922;7.730;2023-01-24T07:09:11;11.60;;;9.73;;
47529;SDS011;33272;51.922;7.730;2023-01-24T07:11:38;10.67;;;9.20;;
47529;SDS011;33272;51.922;7.730;2023-01-24T07:14:05;11.67;;;9.57;;
47529;SDS011;33272;51.922;7.730;2023-01-24T07:16:32;9.80;;;7.90;;
47529;SDS011;33272;51.922;7.730;2023-01-24T07:18:59;11.30;;;9.00;;
47529;SDS011;33272;51.922;7.730;2023-01-24T07:21:27;11.57;;;9.53;;
47529;SDS011;33272;51.922;7.730;2023-01-24T07:23:55;11.57;;;9.13;;
47529;SDS011;33272;51.922;7.730;2023-01-24T07:26:25;11.20;;;8.90;;
47529;SDS011;33272;51.922;7.730;2023-01-24T07:28:53;11.93;;;8.57;;
47529;SDS011;33272;51.922;7.730;2023-01-24T07:31:20;10.97;;;8.73;;
47529;SDS011;33272;51.922;7.730;2023-01-24T07:33:47;12.60;;;9.00;;
47529;SDS011;33272;51.922;7.730;2023-01-24T07:36:15;11.63;;;8.70;;
47529;SDS011;33272;51.922;7.730;2023-01-24T07:38:42;10.70;;;8.93;;
47529;SDS011;33272;51.922;7.730;2023-01-24T07:41:09;10.93;;;8.97;;
47529;SDS011;33272;51.922;7.730;2023-01-24T07:43:38;11.10;;;9.23;;
47529;SDS011;33272;51.922;7.730;2023-01-24T07:46:06;9.43;;;8.43;;
47529;SDS011;33272;51.922;7.730;2023-01-24T07:48:33;12.37;;;9.93;;
47529;SDS011;33272;51.922;7.730;2023-01-24T07:51:00;12.47;;;9.70;;
47529;SDS011;33272;51.922;7.730;2023-01-24T07:53:27;11.63;;;9.97;;
47529;SDS011;33272;51.922;7.730;2023-01-24T07:55:57;12.07;;;9.90;;
47529;SDS011;33272;51.922;7.730;2023-01-24T07:58:25;12.60;;;10.20;;
47529;SDS011;33272;51.922;7.730;2023-01-24T08:00:54;12.07;;;9.63;;
47529;SDS011;33272;51.922;7.730;2023-01-24T08:03:21;12.83;;;10.33;;
47529;SDS011;33272;51.922;7.730;2023-01-24T08:05:48;11.13;;;9.13;;
47529;SDS011;33272;51.922;7.730;2023-01-24T08:08:15;12.90;;;9.90;;
47529;SDS011;33272;51.922;7.730;2023-01-24T08:10:42;12.07;;;9.63;;
47529;SDS011;33272;51.922;7.730;2023-01-24T08:13:09;14.40;;;10.53;;
47529;SDS011;33272;51.922;7.730;2023-01-24T08:15:36;12.07;;;10.03;;
47529;SDS011;33272;51.922;7.730;2023-01-24T08:18:05;12.73;;;10.03;;
47529;SDS011;33272;51.922;7.730;2023-01-24T08:20:32;13.13;;;10.43;;
47529;SDS011;33272;51.922;7.730;2023-01-24T08:22:59;12.63;;;9.50;;
47529;SDS011;33272;51.922;7.730;2023-01-24T08:25:26;12.77;;;10.10;;
47529;SDS011;33272;51.922;7.730;2023-01-24T08:27:55;10.80;;;8.93;;
47529;SDS011;33272;51.922;7.730;2023-01-24T08:30:22;13.90;;;10.57;;
47529;SDS011;33272;51.922;7.730;2023-01-24T08:32:57;12.00;;;10.07;;
47529;SDS011;33272;51.922;7.730;2023-01-24T08:35:27;12.97;;;9.90;;
47529;SDS011;33272;51.922;7.730;2023-01-24T08:37:54;13.43;;;9.90;;
47529;SDS011;33272;51.922;7.730;2023-01-24T08:40:21;15.03;;;11.30;;
47529;SDS011;33272;51.922;7.730;2023-01-24T08:42:51;13.57;;;10.23;;
47529;SDS011;33272;51.922;7.730;2023-01-24T08:45:18;11.70;;;9.50;;
47529;SDS011;33272;51.922;7.730;2023-01-24T08:47:50;13.67;;;10.13;;
47529;SDS011;33272;51.922;7.730;2023-01-24T08:50:18;12.83;;;9.73;;
47529;SDS011;33272;51.922;7.730;2023-01-24T08:52:47;13.80;;;10.33;;
47529;SDS011;33272;51.922;7.730;2023-01-24T08:55:14;13.07;;;10.40;;
47529;SDS011;33272;51.922;7.730;2023-01-24T08:57:41;11.77;;;9.87;;
47529;SDS011;33272;51.922;7.730;2023-01-24T09:00:12;13.63;;;10.57;;
47529;SDS011;33272;51.922;7.730;2023-01-24T09:02:43;13.27;;;10.20;;
47529;SDS011;33272;51.922;7.730;2023-01-24T09:05:10;12.93;;;10.33;;
47529;SDS011;33272;51.922;7.730;2023-01-24T09:07:37;13.37;;;10.90;;
47529;SDS011;33272;51.922;7.730;2023-01-24T09:10:08;12.33;;;9.93;;
47529;SDS011;33272;51.922;7.730;2023-01-24T09:12:36;10.37;;;9.07;;
47529;SDS011;33272;51.922;7.730;2023-01-24T09:15:03;12.67;;;9.87;;
47529;SDS011;33272;51.922;7.730;2023-01-24T09:17:32;12.37;;;10.00;;
47529;SDS011;33272;51.922;7.730;2023-01-24T09:19:59;10.83;;;8.73;;
47529;SDS011;33272;51.922;7.730;2023-01-24T09:22:26;10.27;;;9.20;;
47529;SDS011;33272;51.922;7.730;2023-01-24T09:24:53;12.13;;;9.70;;
47529;SDS011;33272;51.922;7.730;2023-01-24T09:27:22;10.97;;;9.43;;
47529;SDS011;33272;51.922;7.730;2023-01-24T09:29:49;9.23;;;8.27;;
47529;SDS011;33272;51.922;7.730;2023-01-24T09:32:16;12.43;;;8.70;;
47529;SDS011;33272;51.922;7.730;2023-01-24T09:34:43;10.53;;;8.70;;
47529;SDS011;33272;51.922;7.730;2023-01-24T09:37:15;9.90;;;8.53;;
47529;SDS011;33272;51.922;7.730;2023-01-24T09:39:43;10.57;;;8.33;;
47529;SDS011;33272;51.922;7.730;2023-01-24T09:42:12;9.70;;;7.77;;
47529;SDS011;33272;51.922;7.730;2023-01-24T09:44:52;9.40;;;7.90;;
47529;SDS011;33272;51.922;7.730;2023-01-24T09:47:25;9.30;;;8.13;;
47529;SDS011;33272;51.922;7.730;2023-01-24T09:50:09;9.40;;;7.93;;
47529;SDS011;33272;51.922;7.730;2023-01-24T09:52:42;9.30;;;7.77;;
47529;SDS011;33272;51.922;7.730;2023-01-24T09:55:13;10.57;;;8.53;;
47529;SDS011;33272;51.922;7.730;2023-01-24T09:57:49;10.30;;;8.77;;
47529;SDS011;33272;51.922;7.730;2023-01-24T10:00:23;10.00;;;8.73;;
47529;SDS011;33272;51.922;7.730;2023-01-24T10:02:54;10.73;;;8.13;;
47529;SDS011;33272;51.922;7.730;2023-01-24T10:05:25;9.53;;;7.80;;
47529;SDS011;33272;51.922;7.730;2023-01-24T10:10:44;10.07;;;8.07;;
47529;SDS011;33272;51.922;7.730;2023-01-24T10:13:24;8.63;;;7.70;;
47529;SDS011;33272;51.922;7.730;2023-01-24T10:16:15;9.47;;;7.60;;
47529;SDS011;33272;51.922;7.730;2023-01-24T10:19:03;9.47;;;7.73;;
47529;SDS011;33272;51.922;7.730;2023-01-24T10:24:50;10.20;;;7.43;;
47529;SDS011;33272;51.922;7.730;2023-01-24T10:27:25;9.50;;;8.07;;
47529;SDS011;33272;51.922;7.730;2023-01-24T10:29:58;11.07;;;8.03;;
47529;SDS011;33272;51.922;7.730;2023-01-24T10:32:39;9.53;;;7.63;;
47529;SDS011;33272;51.922;7.730;2023-01-24T10:35:11;9.20;;;7.67;;
47529;SDS011;33272;51.922;7.730;2023-01-24T10:37:43;8.27;;;7.30;;
47529;SDS011;33272;51.922;7.730;2023-01-24T10:40:19;8.77;;;7.77;;
47529;SDS011;33272;51.922;7.730;2023-01-24T10:42:48;9.20;;;7.93;;
47529;SDS011;33272;51.922;7.730;2023-01-24T10:45:26;9.00;;;7.33;;
47529;SDS011;33272;51.922;7.730;2023-01-24T10:48:12;8.17;;;7.27;;
47529;SDS011;33272;51.922;7.730;2023-01-24T10:50:58;9.60;;;7.60;;
47529;SDS011;33272;51.922;7.730;2023-01-24T10:53:37;9.33;;;7.13;;
47529;SDS011;33272;51.922;7.730;2023-01-24T10:56:05;10.00;;;8.10;;
47529;SDS011;33272;51.922;7.730;2023-01-24T10:58:34;9.20;;;7.63;;
47529;SDS011;33272;51.922;7.730;2023-01-24T11:01:08;8.70;;;7.77;;
47529;SDS011;33272;51.922;7.730;2023-01-24T11:03:45;8.57;;;7.47;;
47529;SDS011;33272;51.922;7.730;2023-01-24T11:06:24;9.97;;;8.00;;
47529;SDS011;33272;51.922;7.730;2023-01-24T11:09:02;8.60;;;7.40;;
47529;SDS011;33272;51.922;7.730;2023-01-24T11:11:36;9.67;;;7.93;;
47529;SDS011;33272;51.922;7.730;2023-01-24T11:14:12;9.23;;;7.20;;
47529;SDS011;33272;51.922;7.730;2023-01-24T11:16:42;8.90;;;7.33;;
47529;SDS011;33272;51.922;7.730;2023-01-24T11:19:23;9.67;;;7.27;;
47529;SDS011;33272;51.922;7.730;2023-01-24T11:21:55;9.07;;;6.87;;
47529;SDS011;33272;51.922;7.730;2023-01-24T11:24:24;8.40;;;7.50;;
47529;SDS011;33272;51.922;7.730;2023-01-24T11:26:55;8.47;;;7.53;;
47529;SDS011;33272;51.922;7.730;2023-01-24T11:29:28;9.13;;;7.37;;
47529;SDS011;33272;51.922;7.730;2023-01-24T11:31:57;7.53;;;6.83;;
47529;SDS011;33272;51.922;7.730;2023-01-24T11:34:49;11.43;;;7.70;;
47529;SDS011;33272;51.922;7.730;2023-01-24T11:37:30;10.43;;;7.93;;
47529;SDS011;33272;51.922;7.730;2023-01-24T11:40:14;8.40;;;7.50;;
47529;SDS011;33272;51.922;7.730;2023-01-24T11:46:19;8.43;;;7.27;;
47529;SDS011;33272;51.922;7.730;2023-01-24T11:49:07;9.00;;;7.80;;
47529;SDS011;33272;51.922;7.730;2023-01-24T11:52:14;10.43;;;8.20;;
47529;SDS011;33272;51.922;7.730;2023-01-24T11:55:01;8.03;;;7.00;;
47529;SDS011;33272;51.922;7.730;2023-01-24T11:57:40;7.93;;;7.13;;
47529;SDS011;33272;51.922;7.730;2023-01-24T12:00:21;8.53;;;7.17;;
47529;SDS011;33272;51.922;7.730;2023-01-24T12:03:08;7.77;;;6.77;;
47529;SDS011;33272;51.922;7.730;2023-01-24T12:05:57;7.37;;;6.47;;
47529;SDS011;33272;51.922;7.730;2023-01-24T12:08:42;7.77;;;6.67;;
47529;SDS011;33272;51.922;7.730;2023-01-24T12:11:29;8.43;;;7.10;;
47529;SDS011;33272;51.922;7.730;2023-01-24T12:14:08;7.60;;;6.47;;
47529;SDS011;33272;51.922;7.730;2023-01-24T12:17:12;8.23;;;7.00;;
47529;SDS011;33272;51.922;7.730;2023-01-24T12:19:56;7.20;;;6.50;;
47529;SDS011;33272;51.922;7.730;2023-01-24T12:22:46;6.80;;;6.00;;
47529;SDS011;33272;51.922;7.730;2023-01-24T12:25:18;7.73;;;6.77;;
47529;SDS011;33272;51.922;7.730;2023-01-24T12:27:52;7.27;;;6.53;;
47529;SDS011;33272;51.922;7.730;2023-01-24T12:30:22;7.70;;;6.27;;
47529;SDS011;33272;51.922;7.730;2023-01-24T12:32:58;7.80;;;6.20;;
47529;SDS011;33272;51.922;7.730;2023-01-24T12:35:35;8.20;;;6.47;;
47529;SDS011;33272;51.922;7.730;2023-01-24T12:38:10;7.90;;;6.73;;
47529;SDS011;33272;51.922;7.730;2023-01-24T12:40:46;8.67;;;7.07;;
47529;SDS011;33272;51.922;7.730;2023-01-24T12:43:21;7.43;;;6.27;;
47529;SDS011;33272;51.922;7.730;2023-01-24T12:45:57;14.90;;;11.20;;
47529;SDS011;33272;51.922;7.730;2023-01-24T12:48:35;9.73;;;7.97;;
47529;SDS011;33272;51.922;7.730;2023-01-24T12:51:10;7.63;;;6.83;;
47529;SDS011;33272;51.922;7.730;2023-01-24T12:53:52;8.73;;;7.20;;
47529;SDS011;33272;51.922;7.730;2023-01-24T12:56:31;8.43;;;7.10;;
47529;SDS011;33272;51.922;7.730;2023-01-24T12:59:09;7.87;;;6.43;;
47529;SDS011;33272;51.922;7.730;2023-01-24T13:01:46;7.37;;;6.30;;
47529;SDS011;33272;51.922;7.730;2023-01-24T13:04:45;8.47;;;6.87;;
47529;SDS011;33272;51.922;7.730;2023-01-24T13:07:26;6.90;;;6.17;;
47529;SDS011;33272;51.922;7.730;2023-01-24T13:10:06;9.23;;;6.87;;
47529;SDS011;33272;51.922;7.730;2023-01-24T13:12:44;7.30;;;6.60;;
47529;SDS011;33272;51.922;7.730;2023-01-24T13:15:14;7.37;;;6.50;;
47529;SDS011;33272;51.922;7.730;2023-01-24T13:17:54;7.80;;;6.93;;
47529;SDS011;33272;51.922;7.730;2023-01-24T13:20:39;6.97;;;6.00;;
47529;SDS011;33272;51.922;7.730;2023-01-24T13:23:29;6.93;;;5.97;;
47529;SDS011;33272;51.922;7.730;2023-01-24T13:26:19;7.27;;;6.57;;
47529;SDS011;33272;51.922;7.730;2023-01-24T13:29:09;7.67;;;6.20;;
47529;SDS011;33272;51.922;7.730;2023-01-24T13:31:54;7.67;;;6.50;;
47529;SDS011;33272;51.922;7.730;2023-01-24T13:34:31;7.40;;;6.27;;
47529;SDS011;33272;51.922;7.730;2023-01-24T13:37:01;8.07;;;6.30;;
47529;SDS011;33272;51.922;7.730;2023-01-24T13:39:30;7.83;;;6.23;;
47529;SDS011;33272;51.922;7.730;2023-01-24T13:42:02;7.53;;;6.57;;
47529;SDS011;33272;51.922;7.730;2023-01-24T13:44:45;7.80;;;6.40;;
47529;SDS011;33272;51.922;7.730;2023-01-24T13:50:09;6.47;;;5.70;;
47529;SDS011;33272;51.922;7.730;2023-01-24T13:52:46;6.80;;;5.67;;
47529;SDS011;33272;51.922;7.730;2023-01-24T13:58:30;6.27;;;5.67;;
47529;SDS011;33272;51.922;7.730;2023-01-24T14:01:01;8.53;;;6.53;;
47529;SDS011;33272;51.922;7.730;2023-01-24T14:03:33;6.73;;;5.67;;
47529;SDS011;33272;51.922;7.730;2023-01-24T14:06:04;9.90;;;6.27;;
47529;SDS011;33272;51.922;7.730;2023-01-24T14:08:47;6.77;;;5.50;;
47529;SDS011;33272;51.922;7.730;2023-01-24T14:11:38;6.43;;;5.73;;
47529;SDS011;33272;51.922;7.730;2023-01-24T14:14:34;7.97;;;6.97;;
47529;SDS011;33272;51.922;7.730;2023-01-24T14:17:27;7.90;;;6.67;;
47529;SDS011;33272;51.922;7.730;2023-01-24T14:23:16;7.97;;;6.13;;
47529;SDS011;33272;51.922;7.730;2023-01-24T14:25:51;7.10;;;6.27;;
47529;SDS011;33272;51.922;7.730;2023-01-24T14:28:24;7.03;;;6.33;;
47529;SDS011;33272;51.922;7.730;2023-01-24T14:30:58;7.13;;;5.67;;
47529;SDS011;33272;51.922;7.730;2023-01-24T14:33:34;7.90;;;6.17;;
47529;SDS011;33272;51.922;7.730;2023-01-24T14:36:13;7.63;;;6.10;;
47529;SDS011;33272;51.922;7.730;2023-01-24T14:41:44;10.03;;;7.13;;
47529;SDS011;33272;51.922;7.730;2023-01-24T14:44:16;7.70;;;6.77;;
47529;SDS011;33272;51.922;7.730;2023-01-24T14:46:55;7.97;;;6.83;;
47529;SDS011;33272;51.922;7.730;2023-01-24T14:49:29;8.37;;;7.17;;
47529;SDS011;33272;51.922;7.730;2023-01-24T14:51:59;8.67;;;7.30;;
47529;SDS011;33272;51.922;7.730;2023-01-24T14:54:28;7.87;;;6.70;;
47529;SDS011;33272;51.922;7.730;2023-01-24T14:56:55;6.80;;;6.10;;
47529;SDS011;33272;51.922;7.730;2023-01-24T14:59:23;8.47;;;7.10;;
47529;SDS011;33272;51.922;7.730;2023-01-24T15:01:50;7.43;;;6.63;;
47529;SDS011;33272;51.922;7.730;2023-01-24T15:04:21;8.90;;;6.50;;
47529;SDS011;33272;51.922;7.730;2023-01-24T15:07:03;8.23;;;6.80;;
47529;SDS011;33272;51.922;7.730;2023-01-24T15:09:36;9.40;;;7.93;;
47529;SDS011;33272;51.922;7.730;2023-01-24T15:14:53;8.90;;;7.53;;
47529;SDS011;33272;51.922;7.730;2023-01-24T15:17:23;7.87;;;6.90;;
47529;SDS011;33272;51.922;7.730;2023-01-24T15:19:54;8.53;;;6.67;;
47529;SDS011;33272;51.922;7.730;2023-01-24T15:22:26;7.97;;;6.70;;
47529;SDS011;33272;51.922;7.730;2023-01-24T15:24:57;9.50;;;8.27;;
47529;SDS011;33272;51.922;7.730;2023-01-24T15:27:34;8.03;;;7.03;;
47529;SDS011;33272;51.922;7.730;2023-01-24T15:30:11;7.60;;;6.17;;
47529;SDS011;33272;51.922;7.730;2023-01-24T15:32:43;7.73;;;6.90;;
47529;SDS011;33272;51.922;7.730;2023-01-24T15:35:20;6.73;;;5.97;;
47529;SDS011;33272;51.922;7.730;2023-01-24T15:40:55;8.47;;;6.73;;
47529;SDS011;33272;51.922;7.730;2023-01-24T15:43:47;6.50;;;5.67;;